sensor_id;sensor_type;location;lat;lon;timestamp;pressure;altitude;pressure_sealevel;temperature;humidity
71621;BME280;59471;42.254;23.102;2023-02-19T00:04:00;96349.41;;;2.12;75.00
71621;BME280;59471;42.254;23.102;2023-02-19T00:06:29;96361.38;;;2.13;74.96
71621;BME280;59471;42.254;23.102;2023-02-19T00:08:56;96345.50;;;2.06;74.98
71621;BME280;59471;42.254;23.102;2023-02-19T00:11:25;96353.53;;;1.90;74.97
71621;BME280;59471;42.254;23.102;2023-02-19T00:13:53;96356.63;;;1.71;75.52
71621;BME280;59471;42.254;23.102;2023-02-19T00:16:26;96356.78;;;1.81;76.42
71621;BME280;59471;42.254;23.102;2023-02-19T00:18:54;96347.66;;;1.88;75.25
71621;BME280;59471;42.254;23.102;2023-02-19T00:21:21;96346.03;;;1.39;76.82
71621;BME280;59471;42.254;23.102;2023-02-19T00:23:52;96360.31;;;1.80;77.00
71621;BME280;59471;42.254;23.102;2023-02-19T00:26:21;96345.13;;;1.99;76.25
71621;BME280;59471;42.254;23.102;2023-02-19T00:28:48;96322.34;;;2.04;75.56
71621;BME280;59471;42.254;23.102;2023-02-19T00:33:49;96321.16;;;1.97;75.56
71621;BME280;59471;42.254;23.102;2023-02-19T00:36:17;96335.09;;;1.59;76.95
71621;BME280;59471;42.254;23.102;2023-02-19T00:38:43;96327.19;;;1.74;76.77
71621;BME280;59471;42.254;23.102;2023-02-19T00:41:10;96319.97;;;1.90;76.16
71621;BME280;59471;42.254;23.102;2023-02-19T00:44:06;96301.47;;;1.72;76.95
71621;BME280;59471;42.254;23.102;2023-02-19T00:46:46;96313.09;;;2.13;75.02
71621;BME280;59471;42.254;23.102;2023-02-19T00:49:15;96320.19;;;1.87;75.90
71621;BME280;59471;42.254;23.102;2023-02-19T00:51:47;96320.78;;;1.91;75.95
71621;BME280;59471;42.254;23.102;2023-02-19T00:54:14;96311.72;;;1.85;75.96
71621;BME280;59471;42.254;23.102;2023-02-19T00:56:40;96310.09;;;1.84;75.69
71621;BME280;59471;42.254;23.102;2023-02-19T00:59:06;96297.03;;;1.50;76.28
71621;BME280;59471;42.254;23.102;2023-02-19T01:01:31;96293.63;;;1.74;77.15
71621;BME280;59471;42.254;23.102;2023-02-19T01:03:57;96299.31;;;1.90;76.14
71621;BME280;59471;42.254;23.102;2023-02-19T01:06:23;96293.69;;;1.96;74.91
71621;BME280;59471;42.254;23.102;2023-02-19T01:08:48;96282.41;;;1.86;75.58
71621;BME280;59471;42.254;23.102;2023-02-19T01:11:15;96297.34;;;1.70;76.47
71621;BME280;59471;42.254;23.102;2023-02-19T01:13:41;96290.66;;;1.67;77.05
71621;BME280;59471;42.254;23.102;2023-02-19T01:16:09;96293.84;;;1.71;76.40
71621;BME280;59471;42.254;23.102;2023-02-19T01:18:37;96295.03;;;1.78;76.35
71621;BME280;59471;42.254;23.102;2023-02-19T01:21:05;96296.66;;;1.79;76.39
71621;BME280;59471;42.254;23.102;2023-02-19T01:23:32;96299.59;;;1.74;76.61
71621;BME280;59471;42.254;23.102;2023-02-19T01:25:58;96300.13;;;1.67;77.68
71621;BME280;59471;42.254;23.102;2023-02-19T01:28:23;96303.88;;;1.87;77.44
71621;BME280;59471;42.254;23.102;2023-02-19T01:30:49;96307.53;;;1.95;76.83
71621;BME280;59471;42.254;23.102;2023-02-19T01:33:14;96305.38;;;1.89;76.81
71621;BME280;59471;42.254;23.102;2023-02-19T01:35:40;96300.56;;;1.84;76.92
71621;BME280;59471;42.254;23.102;2023-02-19T01:38:05;96298.25;;;1.93;76.42
71621;BME280;59471;42.254;23.102;2023-02-19T01:40:34;96295.09;;;2.00;76.67
71621;BME280;59471;42.254;23.102;2023-02-19T01:43:00;96300.75;;;2.05;76.84
71621;BME280;59471;42.254;23.102;2023-02-19T01:45:28;96296.28;;;1.72;77.41
71621;BME280;59471;42.254;23.102;2023-02-19T01:48:00;96296.44;;;1.82;77.70
71621;BME280;59471;42.254;23.102;2023-02-19T01:50:31;96301.16;;;1.88;76.54
71621;BME280;59471;42.254;23.102;2023-02-19T01:53:04;96303.22;;;1.48;78.21
71621;BME280;59471;42.254;23.102;2023-02-19T01:55:32;96295.69;;;1.69;78.08
71621;BME280;59471;42.254;23.102;2023-02-19T01:58:00;96300.53;;;1.49;78.66
71621;BME280;59471;42.254;23.102;2023-02-19T02:00:27;96289.13;;;1.65;77.71
71621;BME280;59471;42.254;23.102;2023-02-19T02:02:54;96288.53;;;1.61;77.91
71621;BME280;59471;42.254;23.102;2023-02-19T02:05:28;96313.09;;;0.93;81.23
71621;BME280;59471;42.254;23.102;2023-02-19T02:08:01;96309.25;;;1.11;80.84
71621;BME280;59471;42.254;23.102;2023-02-19T02:10:46;96328.06;;;0.88;81.33
71621;BME280;59471;42.254;23.102;2023-02-19T02:13:12;96322.19;;;0.99;81.63
71621;BME280;59471;42.254;23.102;2023-02-19T02:15:51;96311.75;;;1.37;79.82
71621;BME280;59471;42.254;23.102;2023-02-19T02:36:02;96335.59;;;1.65;78.31
71621;BME280;59471;42.254;23.102;2023-02-19T02:38:34;96339.88;;;1.53;79.23
71621;BME280;59471;42.254;23.102;2023-02-19T02:41:03;96326.56;;;1.46;78.84
71621;BME280;59471;42.254;23.102;2023-02-19T02:43:29;96323.09;;;1.34;79.49
71621;BME280;59471;42.254;23.102;2023-02-19T02:45:55;96323.16;;;1.22;79.98
71621;BME280;59471;42.254;23.102;2023-02-19T02:53:35;96329.41;;;1.54;79.26
71621;BME280;59471;42.254;23.102;2023-02-19T02:56:24;96332.00;;;1.30;79.76
71621;BME280;59471;42.254;23.102;2023-02-19T02:58:51;96327.66;;;1.31;78.84
71621;BME280;59471;42.254;23.102;2023-02-19T03:01:24;96325.75;;;1.09;80.53
71621;BME280;59471;42.254;23.102;2023-02-19T03:04:36;96331.22;;;1.17;80.30
71621;BME280;59471;42.254;23.102;2023-02-19T03:10:43;96350.63;;;0.97;81.61
71621;BME280;59471;42.254;23.102;2023-02-19T03:13:15;96334.03;;;1.01;81.72
71621;BME280;59471;42.254;23.102;2023-02-19T03:16:25;96334.19;;;1.24;80.70
71621;BME280;59471;42.254;23.102;2023-02-19T03:19:14;96344.50;;;0.74;81.88
71621;BME280;59471;42.254;23.102;2023-02-19T03:21:48;96346.63;;;0.93;83.04
71621;BME280;59471;42.254;23.102;2023-02-19T03:24:18;96351.56;;;1.46;81.17
71621;BME280;59471;42.254;23.102;2023-02-19T03:27:07;96355.91;;;1.32;79.71
71621;BME280;59471;42.254;23.102;2023-02-19T03:29:36;96370.53;;;1.21;80.29
71621;BME280;59471;42.254;23.102;2023-02-19T03:32:08;96362.19;;;1.17;80.12
71621;BME280;59471;42.254;23.102;2023-02-19T03:34:41;96360.94;;;1.47;79.12
71621;BME280;59471;42.254;23.102;2023-02-19T03:37:18;96361.69;;;1.49;78.75
71621;BME280;59471;42.254;23.102;2023-02-19T03:39:48;96355.38;;;1.03;80.92
71621;BME280;59471;42.254;23.102;2023-02-19T03:50:29;96357.38;;;0.74;80.99
71621;BME280;59471;42.254;23.102;2023-02-19T03:58:32;96366.56;;;0.65;81.97
71621;BME280;59471;42.254;23.102;2023-02-19T04:01:07;96367.16;;;0.69;81.77
71621;BME280;59471;42.254;23.102;2023-02-19T04:06:28;96377.25;;;0.85;80.20
71621;BME280;59471;42.254;23.102;2023-02-19T04:08:58;96376.63;;;0.94;80.39
71621;BME280;59471;42.254;23.102;2023-02-19T04:11:26;96370.88;;;0.78;80.51
71621;BME280;59471;42.254;23.102;2023-02-19T04:13:57;96379.13;;;0.32;82.32
71621;BME280;59471;42.254;23.102;2023-02-19T04:16:28;96381.41;;;0.75;81.39
71621;BME280;59471;42.254;23.102;2023-02-19T04:18:59;96381.72;;;0.83;80.80
71621;BME280;59471;42.254;23.102;2023-02-19T04:21:31;96379.03;;;0.72;80.60
71621;BME280;59471;42.254;23.102;2023-02-19T04:24:01;96379.34;;;0.29;82.46
71621;BME280;59471;42.254;23.102;2023-02-19T04:26:31;96389.53;;;0.56;81.69
71621;BME280;59471;42.254;23.102;2023-02-19T04:28:58;96382.13;;;0.64;80.53
71621;BME280;59471;42.254;23.102;2023-02-19T04:31:24;96378.94;;;0.60;80.72
71621;BME280;59471;42.254;23.102;2023-02-19T04:33:51;96375.53;;;0.73;79.99
71621;BME280;59471;42.254;23.102;2023-02-19T04:36:16;96391.88;;;0.20;81.50
71621;BME280;59471;42.254;23.102;2023-02-19T04:38:42;96387.16;;;0.40;80.86
71621;BME280;59471;42.254;23.102;2023-02-19T04:41:08;96393.66;;;0.45;81.20
71621;BME280;59471;42.254;23.102;2023-02-19T04:43:34;96391.91;;;0.46;82.33
71621;BME280;59471;42.254;23.102;2023-02-19T04:46:00;96384.31;;;0.57;81.58
71621;BME280;59471;42.254;23.102;2023-02-19T04:48:26;96387.75;;;0.31;81.48
71621;BME280;59471;42.254;23.102;2023-02-19T04:50:52;96396.13;;;0.47;80.95
71621;BME280;59471;42.254;23.102;2023-02-19T04:53:18;96387.38;;;0.62;79.96
71621;BME280;59471;42.254;23.102;2023-02-19T04:55:43;96388.19;;;0.63;79.99
71621;BME280;59471;42.254;23.102;2023-02-19T04:58:09;96386.16;;;0.55;79.89
71621;BME280;59471;42.254;23.102;2023-02-19T05:00:34;96386.34;;;0.78;79.13
71621;BME280;59471;42.254;23.102;2023-02-19T05:03:00;96397.06;;;0.59;79.65
71621;BME280;59471;42.254;23.102;2023-02-19T05:05:26;96402.00;;;0.49;80.35
71621;BME280;59471;42.254;23.102;2023-02-19T05:07:52;96392.31;;;0.40;80.36
71621;BME280;59471;42.254;23.102;2023-02-19T05:10:18;96398.91;;;0.44;80.70
71621;BME280;59471;42.254;23.102;2023-02-19T05:12:43;96399.34;;;0.51;79.61
71621;BME280;59471;42.254;23.102;2023-02-19T05:15:09;96394.16;;;0.38;80.25
71621;BME280;59471;42.254;23.102;2023-02-19T05:17:34;96396.44;;;0.30;80.24
71621;BME280;59471;42.254;23.102;2023-02-19T05:20:00;96394.78;;;0.29;81.46
71621;BME280;59471;42.254;23.102;2023-02-19T05:22:27;96403.66;;;0.50;80.83
71621;BME280;59471;42.254;23.102;2023-02-19T05:24:53;96406.34;;;0.36;80.23
71621;BME280;59471;42.254;23.102;2023-02-19T05:27:19;96407.88;;;0.26;80.41
71621;BME280;59471;42.254;23.102;2023-02-19T05:29:44;96407.78;;;0.40;80.29
71621;BME280;59471;42.254;23.102;2023-02-19T05:32:10;96411.16;;;0.28;80.48
71621;BME280;59471;42.254;23.102;2023-02-19T05:34:35;96415.59;;;0.26;80.67
71621;BME280;59471;42.254;23.102;2023-02-19T05:37:01;96416.00;;;0.19;80.62
71621;BME280;59471;42.254;23.102;2023-02-19T05:39:27;96414.16;;;0.34;80.65
71621;BME280;59471;42.254;23.102;2023-02-19T05:41:52;96423.38;;;0.11;81.30
71621;BME280;59471;42.254;23.102;2023-02-19T05:44:18;96429.22;;;0.40;80.61
71621;BME280;59471;42.254;23.102;2023-02-19T05:46:43;96427.59;;;0.52;80.22
71621;BME280;59471;42.254;23.102;2023-02-19T05:49:09;96429.13;;;0.42;79.80
71621;BME280;59471;42.254;23.102;2023-02-19T05:51:34;96437.50;;;0.18;80.80
71621;BME280;59471;42.254;23.102;2023-02-19T05:54:00;96442.53;;;0.07;82.35
71621;BME280;59471;42.254;23.102;2023-02-19T05:56:39;96437.75;;;0.41;81.41
71621;BME280;59471;42.254;23.102;2023-02-19T05:59:18;96440.81;;;0.60;80.38
71621;BME280;59471;42.254;23.102;2023-02-19T06:01:46;96444.91;;;0.76;80.69
71621;BME280;59471;42.254;23.102;2023-02-19T06:04:13;96437.91;;;0.52;81.00
71621;BME280;59471;42.254;23.102;2023-02-19T06:06:40;96448.03;;;0.81;80.54
71621;BME280;59471;42.254;23.102;2023-02-19T06:09:07;96442.66;;;0.84;80.92
71621;BME280;59471;42.254;23.102;2023-02-19T06:11:33;96451.63;;;1.16;80.99
71621;BME280;59471;42.254;23.102;2023-02-19T06:13:59;96449.88;;;1.30;80.25
71621;BME280;59471;42.254;23.102;2023-02-19T06:16:25;96457.47;;;1.44;80.00
71621;BME280;59471;42.254;23.102;2023-02-19T06:18:51;96453.56;;;1.26;80.33
71621;BME280;59471;42.254;23.102;2023-02-19T06:21:17;96458.03;;;1.36;80.61
71621;BME280;59471;42.254;23.102;2023-02-19T06:23:43;96461.59;;;1.59;79.96
71621;BME280;59471;42.254;23.102;2023-02-19T06:26:11;96465.22;;;1.44;80.37
71621;BME280;59471;42.254;23.102;2023-02-19T06:28:48;96471.50;;;1.66;79.01
71621;BME280;59471;42.254;23.102;2023-02-19T06:31:15;96467.00;;;1.31;79.94
71621;BME280;59471;42.254;23.102;2023-02-19T06:33:41;96468.44;;;1.35;79.56
71621;BME280;59471;42.254;23.102;2023-02-19T06:36:11;96466.38;;;1.40;80.01
71621;BME280;59471;42.254;23.102;2023-02-19T06:38:38;96465.38;;;1.30;81.40
71621;BME280;59471;42.254;23.102;2023-02-19T06:41:05;96469.25;;;1.23;81.00
71621;BME280;59471;42.254;23.102;2023-02-19T06:43:32;96467.63;;;1.22;80.91
71621;BME280;59471;42.254;23.102;2023-02-19T06:46:02;96469.88;;;1.13;80.73
71621;BME280;59471;42.254;23.102;2023-02-19T06:48:30;96467.75;;;1.07;80.13
71621;BME280;59471;42.254;23.102;2023-02-19T06:50:56;96479.09;;;1.18;80.34
71621;BME280;59471;42.254;23.102;2023-02-19T06:53:22;96468.75;;;1.30;79.05
71621;BME280;59471;42.254;23.102;2023-02-19T06:56:02;96480.00;;;1.42;80.14
71621;BME280;59471;42.254;23.102;2023-02-19T06:58:29;96477.91;;;1.60;78.73
71621;BME280;59471;42.254;23.102;2023-02-19T07:00:55;96478.25;;;1.79;78.47
71621;BME280;59471;42.254;23.102;2023-02-19T07:03:21;96481.19;;;1.75;78.16
71621;BME280;59471;42.254;23.102;2023-02-19T07:05:47;96478.91;;;1.83;79.60
71621;BME280;59471;42.254;23.102;2023-02-19T07:08:13;96480.66;;;2.06;78.80
71621;BME280;59471;42.254;23.102;2023-02-19T07:10:41;96477.47;;;2.27;78.08
71621;BME280;59471;42.254;23.102;2023-02-19T07:13:07;96476.56;;;2.39;77.19
71621;BME280;59471;42.254;23.102;2023-02-19T07:15:33;96473.78;;;2.42;77.24
71621;BME280;59471;42.254;23.102;2023-02-19T07:17:59;96478.28;;;2.51;76.80
71621;BME280;59471;42.254;23.102;2023-02-19T07:20:24;96471.88;;;2.68;76.13
71621;BME280;59471;42.254;23.102;2023-02-19T07:22:50;96483.28;;;2.66;75.78
71621;BME280;59471;42.254;23.102;2023-02-19T07:25:15;96475.06;;;2.83;75.98
71621;BME280;59471;42.254;23.102;2023-02-19T07:27:41;96482.66;;;2.97;75.74
71621;BME280;59471;42.254;23.102;2023-02-19T07:30:07;96478.19;;;3.11;74.75
71621;BME280;59471;42.254;23.102;2023-02-19T07:32:33;96479.25;;;3.08;74.78
71621;BME280;59471;42.254;23.102;2023-02-19T07:34:58;96477.25;;;3.12;75.74
71621;BME280;59471;42.254;23.102;2023-02-19T07:37:24;96477.50;;;3.20;74.97
71621;BME280;59471;42.254;23.102;2023-02-19T07:39:49;96468.78;;;3.43;74.64
71621;BME280;59471;42.254;23.102;2023-02-19T07:42:15;96464.44;;;3.55;73.43
71621;BME280;59471;42.254;23.102;2023-02-19T07:44:40;96465.97;;;3.58;72.96
71621;BME280;59471;42.254;23.102;2023-02-19T07:47:06;96467.97;;;3.65;72.72
71621;BME280;59471;42.254;23.102;2023-02-19T07:49:32;96468.19;;;3.62;72.73
71621;BME280;59471;42.254;23.102;2023-02-19T07:51:58;96467.84;;;3.78;73.29
71621;BME280;59471;42.254;23.102;2023-02-19T07:54:23;96465.91;;;4.03;72.31
71621;BME280;59471;42.254;23.102;2023-02-19T07:56:49;96465.66;;;4.06;71.68
71621;BME280;59471;42.254;23.102;2023-02-19T07:59:14;96463.53;;;4.11;71.86
71621;BME280;59471;42.254;23.102;2023-02-19T08:01:40;96467.09;;;4.10;71.28
71621;BME280;59471;42.254;23.102;2023-02-19T08:04:24;96455.06;;;4.41;70.67
71621;BME280;59471;42.254;23.102;2023-02-19T08:06:51;96450.63;;;4.64;70.57
71621;BME280;59471;42.254;23.102;2023-02-19T08:09:17;96451.72;;;4.82;69.43
71621;BME280;59471;42.254;23.102;2023-02-19T08:11:43;96451.38;;;4.97;69.02
71621;BME280;59471;42.254;23.102;2023-02-19T08:14:27;96439.59;;;4.93;69.09
71621;BME280;59471;42.254;23.102;2023-02-19T08:16:53;96443.31;;;5.21;69.08
71621;BME280;59471;42.254;23.102;2023-02-19T08:19:20;96447.78;;;5.40;67.36
71621;BME280;59471;42.254;23.102;2023-02-19T08:21:46;96444.53;;;5.57;67.05
71621;BME280;59471;42.254;23.102;2023-02-19T08:24:11;96452.53;;;5.75;65.79
71621;BME280;59471;42.254;23.102;2023-02-19T08:26:37;96440.81;;;5.80;66.85
71621;BME280;59471;42.254;23.102;2023-02-19T08:29:04;96444.13;;;6.02;65.24
71621;BME280;59471;42.254;23.102;2023-02-19T08:31:30;96428.84;;;6.09;65.54
71621;BME280;59471;42.254;23.102;2023-02-19T08:33:57;96437.06;;;6.23;64.93
71621;BME280;59471;42.254;23.102;2023-02-19T08:36:22;96443.78;;;6.36;64.91
71621;BME280;59471;42.254;23.102;2023-02-19T08:38:48;96432.41;;;6.37;65.57
71621;BME280;59471;42.254;23.102;2023-02-19T08:41:14;96439.97;;;6.59;63.69
71621;BME280;59471;42.254;23.102;2023-02-19T08:43:40;96425.84;;;6.71;64.05
71621;BME280;59471;42.254;23.102;2023-02-19T08:46:07;96421.81;;;6.87;63.26
71621;BME280;59471;42.254;23.102;2023-02-19T08:48:34;96416.59;;;6.96;63.60
71621;BME280;59471;42.254;23.102;2023-02-19T08:51:02;96424.13;;;7.09;63.32
71621;BME280;59471;42.254;23.102;2023-02-19T08:53:31;96419.13;;;7.26;61.95
71621;BME280;59471;42.254;23.102;2023-02-19T08:55:57;96411.56;;;7.32;61.78
71621;BME280;59471;42.254;23.102;2023-02-19T08:58:23;96409.44;;;7.46;61.43
71621;BME280;59471;42.254;23.102;2023-02-19T09:00:50;96404.94;;;7.48;60.16
71621;BME280;59471;42.254;23.102;2023-02-19T09:03:16;96395.41;;;7.56;59.71
71621;BME280;59471;42.254;23.102;2023-02-19T09:05:42;96401.69;;;7.63;59.97
71621;BME280;59471;42.254;23.102;2023-02-19T09:08:11;96388.31;;;7.94;59.34
71621;BME280;59471;42.254;23.102;2023-02-19T09:10:37;96392.84;;;8.20;59.91
71621;BME280;59471;42.254;23.102;2023-02-19T09:13:03;96386.34;;;8.42;58.89
71621;BME280;59471;42.254;23.102;2023-02-19T09:15:29;96364.88;;;8.48;58.21
71621;BME280;59471;42.254;23.102;2023-02-19T09:17:54;96371.66;;;8.58;58.49
71621;BME280;59471;42.254;23.102;2023-02-19T09:20:20;96375.34;;;8.74;58.38
71621;BME280;59471;42.254;23.102;2023-02-19T09:22:45;96360.91;;;8.88;56.00
71621;BME280;59471;42.254;23.102;2023-02-19T09:25:11;96359.19;;;8.96;56.63
71621;BME280;59471;42.254;23.102;2023-02-19T09:27:37;96351.28;;;8.88;56.96
71621;BME280;59471;42.254;23.102;2023-02-19T09:30:03;96344.44;;;8.87;55.54
71621;BME280;59471;42.254;23.102;2023-02-19T09:32:32;96351.34;;;8.96;56.62
71621;BME280;59471;42.254;23.102;2023-02-19T09:34:58;96347.63;;;9.33;54.46
71621;BME280;59471;42.254;23.102;2023-02-19T09:37:25;96344.81;;;9.35;55.41
71621;BME280;59471;42.254;23.102;2023-02-19T09:39:51;96337.84;;;9.51;55.23
71621;BME280;59471;42.254;23.102;2023-02-19T09:42:21;96327.47;;;9.76;54.03
71621;BME280;59471;42.254;23.102;2023-02-19T09:44:51;96317.03;;;9.92;53.37
71621;BME280;59471;42.254;23.102;2023-02-19T09:47:22;96330.16;;;10.09;52.48
71621;BME280;59471;42.254;23.102;2023-02-19T09:49:51;96321.03;;;10.29;52.74
71621;BME280;59471;42.254;23.102;2023-02-19T09:55:17;96299.75;;;10.49;53.45
71621;BME280;59471;42.254;23.102;2023-02-19T09:57:52;96289.59;;;10.54;53.06
71621;BME280;59471;42.254;23.102;2023-02-19T10:00:26;96278.41;;;10.76;52.63
71621;BME280;59471;42.254;23.102;2023-02-19T10:03:01;96274.41;;;11.05;51.53
71621;BME280;59471;42.254;23.102;2023-02-19T10:05:29;96267.47;;;11.20;50.93
71621;BME280;59471;42.254;23.102;2023-02-19T10:07:56;96262.69;;;11.24;50.66
71621;BME280;59471;42.254;23.102;2023-02-19T10:10:29;96258.72;;;11.28;49.60
71621;BME280;59471;42.254;23.102;2023-02-19T10:15:50;96243.66;;;11.84;47.73
71621;BME280;59471;42.254;23.102;2023-02-19T10:18:21;96238.25;;;11.86;48.53
71621;BME280;59471;42.254;23.102;2023-02-19T10:20:50;96235.00;;;12.21;47.09
71621;BME280;59471;42.254;23.102;2023-02-19T10:23:17;96239.59;;;12.57;47.01
71621;BME280;59471;42.254;23.102;2023-02-19T10:25:49;96237.69;;;12.51;46.64
71621;BME280;59471;42.254;23.102;2023-02-19T10:28:24;96225.75;;;12.48;47.69
71621;BME280;59471;42.254;23.102;2023-02-19T10:30:54;96209.59;;;12.37;46.05
71621;BME280;59471;42.254;23.102;2023-02-19T10:33:22;96211.31;;;12.29;45.96
71621;BME280;59471;42.254;23.102;2023-02-19T10:36:05;96205.63;;;12.56;45.50
71621;BME280;59471;42.254;23.102;2023-02-19T10:38:39;96195.03;;;12.79;45.12
71621;BME280;59471;42.254;23.102;2023-02-19T10:41:15;96180.34;;;12.69;47.28
71621;BME280;59471;42.254;23.102;2023-02-19T10:43:51;96178.59;;;12.91;45.63
71621;BME280;59471;42.254;23.102;2023-02-19T10:46:25;96177.66;;;13.14;47.34
71621;BME280;59471;42.254;23.102;2023-02-19T10:48:56;96173.19;;;13.14;44.85
71621;BME280;59471;42.254;23.102;2023-02-19T10:51:38;96163.81;;;13.41;44.84
71621;BME280;59471;42.254;23.102;2023-02-19T10:54:18;96160.94;;;13.58;43.49
71621;BME280;59471;42.254;23.102;2023-02-19T10:56:45;96154.94;;;13.64;42.99
71621;BME280;59471;42.254;23.102;2023-02-19T11:02:15;96147.81;;;14.07;41.29
71621;BME280;59471;42.254;23.102;2023-02-19T11:05:03;96133.16;;;13.98;42.09
71621;BME280;59471;42.254;23.102;2023-02-19T11:07:29;96133.22;;;14.11;41.97
71621;BME280;59471;42.254;23.102;2023-02-19T11:09:55;96121.56;;;14.21;41.07
71621;BME280;59471;42.254;23.102;2023-02-19T11:12:27;96107.47;;;14.35;40.35
71621;BME280;59471;42.254;23.102;2023-02-19T11:14:54;96094.81;;;14.58;40.94
71621;BME280;59471;42.254;23.102;2023-02-19T11:17:28;96093.41;;;14.63;40.70
71621;BME280;59471;42.254;23.102;2023-02-19T11:20:07;96100.34;;;14.64;40.26
71621;BME280;59471;42.254;23.102;2023-02-19T11:22:41;96091.03;;;14.68;38.47
71621;BME280;59471;42.254;23.102;2023-02-19T11:30:49;96076.16;;;15.15;40.27
71621;BME280;59471;42.254;23.102;2023-02-19T11:35:41;96065.03;;;15.26;37.70
71621;BME280;59471;42.254;23.102;2023-02-19T11:38:09;96047.75;;;15.17;40.47
71621;BME280;59471;42.254;23.102;2023-02-19T11:43:39;96041.69;;;15.36;37.46
71621;BME280;59471;42.254;23.102;2023-02-19T11:57:44;96032.13;;;15.88;37.19
71621;BME280;59471;42.254;23.102;2023-02-19T12:06:12;96021.75;;;16.07;37.67
71621;BME280;59471;42.254;23.102;2023-02-19T12:09:05;96016.44;;;16.13;37.23
71621;BME280;59471;42.254;23.102;2023-02-19T12:38:43;95951.09;;;17.35;34.69
71621;BME280;59471;42.254;23.102;2023-02-19T12:41:55;95939.69;;;17.35;34.33
71621;BME280;59471;42.254;23.102;2023-02-19T12:44:32;95934.13;;;17.18;34.91
71621;BME280;59471;42.254;23.102;2023-02-19T12:47:18;95930.22;;;17.46;33.83
71621;BME280;59471;42.254;23.102;2023-02-19T12:49:59;95919.44;;;17.22;34.06
71621;BME280;59471;42.254;23.102;2023-02-19T12:52:36;95923.03;;;17.53;35.98
71621;BME280;59471;42.254;23.102;2023-02-19T12:55:20;95916.09;;;17.52;33.74
71621;BME280;59471;42.254;23.102;2023-02-19T12:57:49;95910.22;;;17.50;33.37
71621;BME280;59471;42.254;23.102;2023-02-19T13:00:25;95900.75;;;17.60;34.05
71621;BME280;59471;42.254;23.102;2023-02-19T13:03:05;95893.31;;;17.69;34.22
71621;BME280;59471;42.254;23.102;2023-02-19T13:11:27;95889.22;;;18.10;33.33
71621;BME280;59471;42.254;23.102;2023-02-19T13:14:18;95881.69;;;18.07;33.53
71621;BME280;59471;42.254;23.102;2023-02-19T13:16:53;95880.13;;;18.18;33.85
71621;BME280;59471;42.254;23.102;2023-02-19T13:19:22;95874.91;;;18.11;34.72
71621;BME280;59471;42.254;23.102;2023-02-19T13:21:54;95876.16;;;18.09;32.55
71621;BME280;59471;42.254;23.102;2023-02-19T13:24:50;95869.63;;;18.11;34.06
71621;BME280;59471;42.254;23.102;2023-02-19T13:30:21;95867.25;;;18.03;32.07
71621;BME280;59471;42.254;23.102;2023-02-19T13:36:24;95840.13;;;17.89;32.09
71621;BME280;59471;42.254;23.102;2023-02-19T13:38:52;95837.28;;;17.91;33.17
71621;BME280;59471;42.254;23.102;2023-02-19T13:41:39;95839.06;;;18.09;32.10
71621;BME280;59471;42.254;23.102;2023-02-19T13:44:16;95841.31;;;18.23;33.23
71621;BME280;59471;42.254;23.102;2023-02-19T13:46:45;95830.63;;;18.30;32.45
71621;BME280;59471;42.254;23.102;2023-02-19T13:49:39;95831.63;;;18.17;31.89
71621;BME280;59471;42.254;23.102;2023-02-19T13:58:37;95820.97;;;18.36;31.87
71621;BME280;59471;42.254;23.102;2023-02-19T14:01:10;95823.97;;;18.39;31.98
71621;BME280;59471;42.254;23.102;2023-02-19T14:06:05;95821.97;;;18.35;32.08
71621;BME280;59471;42.254;23.102;2023-02-19T14:08:56;95827.03;;;18.24;31.20
71621;BME280;59471;42.254;23.102;2023-02-19T14:14:35;95817.22;;;18.13;31.41
71621;BME280;59471;42.254;23.102;2023-02-19T14:28:02;95804.81;;;18.25;32.70
71621;BME280;59471;42.254;23.102;2023-02-19T14:30:30;95806.84;;;18.23;33.12
71621;BME280;59471;42.254;23.102;2023-02-19T14:32:59;95800.97;;;18.21;32.51
71621;BME280;59471;42.254;23.102;2023-02-19T14:35:35;95794.69;;;18.04;32.59
71621;BME280;59471;42.254;23.102;2023-02-19T14:38:04;95792.69;;;17.88;32.40
71621;BME280;59471;42.254;23.102;2023-02-19T14:40:37;95795.44;;;17.74;32.79
71621;BME280;59471;42.254;23.102;2023-02-19T14:43:05;95776.38;;;17.54;33.51
71621;BME280;59471;42.254;23.102;2023-02-19T14:45:38;95794.97;;;17.66;33.47
71621;BME280;59471;42.254;23.102;2023-02-19T14:48:15;95793.22;;;17.59;33.63
71621;BME280;59471;42.254;23.102;2023-02-19T14:50:48;95790.78;;;17.58;33.31
71621;BME280;59471;42.254;23.102;2023-02-19T14:53:19;95799.66;;;17.64;34.16
71621;BME280;59471;42.254;23.102;2023-02-19T14:55:47;95791.66;;;17.52;33.27
71621;BME280;59471;42.254;23.102;2023-02-19T14:58:19;95781.66;;;17.35;34.54
71621;BME280;59471;42.254;23.102;2023-02-19T15:00:47;95790.28;;;17.31;34.63
71621;BME280;59471;42.254;23.102;2023-02-19T15:03:35;95782.63;;;17.23;34.17
71621;BME280;59471;42.254;23.102;2023-02-19T15:06:07;95775.34;;;17.18;33.88
71621;BME280;59471;42.254;23.102;2023-02-19T15:08:39;95780.84;;;17.17;34.59
71621;BME280;59471;42.254;23.102;2023-02-19T15:11:13;95786.59;;;17.13;34.38
71621;BME280;59471;42.254;23.102;2023-02-19T15:13:41;95781.06;;;16.97;33.86
71621;BME280;59471;42.254;23.102;2023-02-19T15:16:16;95785.59;;;16.89;35.07
71621;BME280;59471;42.254;23.102;2023-02-19T15:18:44;95778.59;;;16.77;33.99
71621;BME280;59471;42.254;23.102;2023-02-19T15:21:21;95783.16;;;16.63;34.31
71621;BME280;59471;42.254;23.102;2023-02-19T15:23:49;95786.06;;;16.55;34.61
71621;BME280;59471;42.254;23.102;2023-02-19T15:26:24;95787.34;;;16.45;34.15
71621;BME280;59471;42.254;23.102;2023-02-19T15:28:58;95791.31;;;16.36;33.60
71621;BME280;59471;42.254;23.102;2023-02-19T15:31:25;95792.75;;;16.32;34.05
71621;BME280;59471;42.254;23.102;2023-02-19T15:33:51;95799.97;;;16.18;33.56
71621;BME280;59471;42.254;23.102;2023-02-19T15:36:35;95791.91;;;16.07;33.97
71621;BME280;59471;42.254;23.102;2023-02-19T15:39:01;95785.25;;;15.97;34.92
71621;BME280;59471;42.254;23.102;2023-02-19T15:41:32;95802.56;;;15.93;34.39